createdAt,value
2022-11-16T00:02:46.445Z,100.00
2022-11-16T00:07:49.154Z,100.00
2022-11-16T00:12:51.929Z,100.00
2022-11-16T00:17:54.651Z,100.00
2022-11-16T00:22:57.447Z,100.00
2022-11-16T00:28:00.338Z,100.00
2022-11-16T00:33:04.194Z,100.00
2022-11-16T00:38:07.377Z,100.00
2022-11-16T00:43:11.074Z,100.00
2022-11-16T00:48:13.910Z,100.00
2022-11-16T00:53:19.237Z,100.00
2022-11-16T00:58:22.611Z,100.00
2022-11-16T01:03:31.843Z,100.00
2022-11-16T01:08:36.480Z,100.00
2022-11-16T01:13:39.431Z,100.00
2022-11-16T01:18:43.941Z,100.00
2022-11-16T01:23:47.003Z,100.00
2022-11-16T01:28:49.948Z,100.00
2022-11-16T01:33:52.858Z,100.00
2022-11-16T01:38:59.852Z,100.00
2022-11-16T01:44:27.982Z,100.00
2022-11-16T01:49:37.886Z,100.00
2022-11-16T01:54:43.726Z,100.00
2022-11-16T01:59:48.607Z,100.00
2022-11-16T02:04:55.944Z,100.00
2022-11-16T02:10:29.958Z,100.00
2022-11-16T02:16:07.329Z,100.00
2022-11-16T02:21:34.115Z,100.00
2022-11-16T02:26:53.037Z,100.00
2022-11-16T02:32:07.535Z,100.00
2022-11-16T02:37:12.324Z,100.00
2022-11-16T02:42:23.321Z,100.00
2022-11-16T02:47:29.600Z,100.00
2022-11-16T02:52:32.546Z,100.00
2022-11-16T02:57:50.815Z,100.00
2022-11-16T03:03:02.181Z,100.00
2022-11-16T03:08:08.332Z,100.00
2022-11-16T03:13:13.029Z,100.00
2022-11-16T03:18:17.082Z,100.00
2022-11-16T03:23:20.588Z,100.00
2022-11-16T03:28:33.109Z,100.00
2022-11-16T03:33:45.848Z,100.00
2022-11-16T03:38:51.517Z,100.00
2022-11-16T03:43:57.123Z,99.61
2022-11-16T03:49:01.192Z,98.91
2022-11-16T03:54:08.148Z,97.98
2022-11-16T03:59:11.896Z,97.17
2022-11-16T04:04:34.511Z,97.03
2022-11-16T04:09:55.780Z,96.43
2022-11-16T04:15:16.924Z,96.09
2022-11-16T04:20:38.143Z,96.75
2022-11-16T04:25:42.054Z,95.90
2022-11-16T04:31:15.079Z,95.85
2022-11-16T04:36:42.468Z,95.99
2022-11-16T04:42:05.451Z,95.83
2022-11-16T04:47:09.540Z,96.72
2022-11-16T04:52:14.588Z,97.14
2022-11-16T04:57:18.768Z,97.94
2022-11-16T05:02:24.118Z,97.76
2022-11-16T05:07:32.837Z,97.84
2022-11-16T05:12:45.655Z,97.20
2022-11-16T05:17:49.352Z,97.11
2022-11-16T05:22:57.466Z,96.07
2022-11-16T05:28:04.540Z,96.08
2022-11-16T05:33:10.037Z,96.24
2022-11-16T05:38:16.842Z,95.68
2022-11-16T05:43:23.107Z,96.06
2022-11-16T05:48:34.667Z,96.13
2022-11-16T05:53:39.327Z,96.69
2022-11-16T05:58:43.898Z,96.88
2022-11-16T06:03:46.717Z,96.80
2022-11-16T06:08:49.523Z,96.85
2022-11-16T06:13:56.854Z,96.95
2022-11-16T06:19:00.075Z,96.72
2022-11-16T06:24:09.271Z,96.27
2022-11-16T06:29:12.441Z,95.28
2022-11-16T06:34:15.691Z,94.41
2022-11-16T06:39:19.340Z,94.55
2022-11-16T06:44:22.642Z,94.25
2022-11-16T06:49:33.738Z,94.22
2022-11-16T06:54:40.472Z,94.59
2022-11-16T06:59:43.285Z,95.10
2022-11-16T07:04:46.144Z,94.51
2022-11-16T07:09:48.852Z,94.55
2022-11-16T07:14:51.631Z,94.79
2022-11-16T07:19:55.269Z,95.18
2022-11-16T07:24:58.761Z,93.93
2022-11-16T07:30:02.504Z,93.38
2022-11-16T07:35:30.943Z,93.76
2022-11-16T07:40:33.584Z,92.48
2022-11-16T07:45:36.921Z,93.24
2022-11-16T07:50:43.144Z,93.39
2022-11-16T07:55:53.924Z,93.55
2022-11-16T08:01:12.094Z,93.83
2022-11-16T08:06:22.057Z,93.53
2022-11-16T08:11:26.453Z,93.89
2022-11-16T08:16:29.333Z,93.09
2022-11-16T08:21:41.666Z,93.51
2022-11-16T08:26:44.434Z,92.97
2022-11-16T08:31:49.711Z,92.23
2022-11-16T08:36:56.656Z,91.79
2022-11-16T08:42:12.170Z,92.60
2022-11-16T08:47:18.693Z,93.57
2022-11-16T08:52:25.767Z,92.82
2022-11-16T08:57:30.657Z,92.92
2022-11-16T09:02:35.834Z,91.82
2022-11-16T09:07:40.357Z,91.46
2022-11-16T09:12:43.554Z,91.42
2022-11-16T09:17:46.983Z,90.75
2022-11-16T09:22:49.839Z,90.78
2022-11-16T09:27:57.967Z,90.86
2022-11-16T09:33:02.602Z,90.33
2022-11-16T09:38:05.307Z,89.36
2022-11-16T09:43:53.980Z,90.20
2022-11-16T09:49:01.346Z,89.86
2022-11-16T09:54:12.323Z,89.68
2022-11-16T09:59:26.793Z,89.87
2022-11-16T10:04:38.965Z,90.27
2022-11-16T10:09:41.803Z,90.45
2022-11-16T10:15:01.784Z,90.18
2022-11-16T10:20:30.670Z,90.45
2022-11-16T10:25:39.638Z,90.33
2022-11-16T10:31:10.034Z,91.05
2022-11-16T10:36:14.712Z,91.19
2022-11-16T10:41:24.211Z,90.48
2022-11-16T10:46:36.289Z,90.95
2022-11-16T10:51:39.080Z,90.39
2022-11-16T10:56:45.785Z,89.58
2022-11-16T11:01:58.039Z,87.60
2022-11-16T11:07:03.508Z,86.47
2022-11-16T11:12:38.508Z,85.13
2022-11-16T11:17:49.371Z,86.02
2022-11-16T11:22:56.952Z,86.43
2022-11-16T11:28:24.334Z,87.36
2022-11-16T11:33:30.592Z,87.16
2022-11-16T11:38:35.094Z,87.98
2022-11-16T11:43:38.870Z,88.10
2022-11-16T11:48:50.051Z,88.39
2022-11-16T11:53:56.633Z,88.92
2022-11-16T11:58:59.432Z,89.90
2022-11-16T12:04:29.549Z,90.53
2022-11-16T12:09:41.233Z,91.19
2022-11-16T12:15:19.806Z,91.60
2022-11-16T12:20:30.595Z,91.32
2022-11-16T12:26:02.620Z,91.11
2022-11-16T12:31:23.303Z,91.20
2022-11-16T12:36:34.882Z,90.51
2022-11-16T12:41:57.560Z,89.93
2022-11-16T12:47:11.432Z,88.63
2022-11-16T12:52:29.542Z,87.62
2022-11-16T12:57:41.357Z,86.82
2022-11-16T13:02:53.128Z,86.21
2022-11-16T13:08:02.824Z,85.65
2022-11-16T13:18:36.033Z,85.46
2022-11-16T13:23:50.811Z,84.90
2022-11-16T13:29:18.030Z,84.61
2022-11-16T13:34:25.477Z,84.96
2022-11-16T13:39:52.985Z,85.22
2022-11-16T13:45:16.588Z,85.41
2022-11-16T13:50:22.504Z,85.13
2022-11-16T13:55:36.674Z,85.07
2022-11-16T14:00:40.915Z,85.68
2022-11-16T14:05:45.397Z,84.63
2022-11-16T14:10:51.063Z,84.75
2022-11-16T14:16:23.151Z,84.77
2022-11-16T14:21:49.057Z,85.86
2022-11-16T14:26:57.679Z,86.38
2022-11-16T14:32:03.555Z,87.19
2022-11-16T14:37:06.879Z,87.92
2022-11-16T14:42:17.163Z,88.50
2022-11-16T14:47:35.459Z,88.13
2022-11-16T14:52:44.966Z,89.04
2022-11-16T14:57:47.900Z,89.80
2022-11-16T15:02:56.373Z,91.00
2022-11-16T15:08:10.390Z,91.77
2022-11-16T15:13:21.871Z,92.68
2022-11-16T15:18:24.717Z,93.56
2022-11-16T15:23:30.623Z,94.70
2022-11-16T15:28:34.393Z,95.32
2022-11-16T15:33:41.052Z,95.92
2022-11-16T15:38:43.798Z,96.71
2022-11-16T15:44:12.155Z,97.13
2022-11-16T15:49:25.257Z,96.93
2022-11-16T15:54:30.646Z,97.76
2022-11-16T15:59:35.154Z,97.43
2022-11-16T16:04:41.740Z,96.99
2022-11-16T16:09:44.465Z,97.75
2022-11-16T16:14:51.850Z,98.46
2022-11-16T16:20:02.862Z,98.70
2022-11-16T16:25:07.519Z,99.37
2022-11-16T16:30:14.965Z,99.71
2022-11-16T16:35:20.099Z,99.50
2022-11-16T16:40:23.034Z,100.00
2022-11-16T16:45:34.606Z,100.00
2022-11-16T16:50:37.657Z,100.00
2022-11-16T16:55:41.383Z,100.00
2022-11-16T17:00:44.296Z,99.72
2022-11-16T17:05:47.019Z,99.44
2022-11-16T17:10:50.684Z,98.42
2022-11-16T17:15:53.433Z,98.18
2022-11-16T17:20:56.158Z,98.42
2022-11-16T17:25:59.074Z,98.52
2022-11-16T17:31:03.099Z,98.40
2022-11-16T17:36:07.473Z,98.59
2022-11-16T17:41:13.086Z,98.22
2022-11-16T17:46:19.007Z,98.05
2022-11-16T17:51:23.900Z,97.96
2022-11-16T17:56:28.053Z,96.83
2022-11-16T18:01:31.681Z,95.80
2022-11-16T18:06:35.839Z,94.53
2022-11-16T18:11:40.141Z,93.43
2022-11-16T18:16:43.865Z,93.35
2022-11-16T18:21:47.234Z,92.65
2022-11-16T18:26:49.869Z,93.11
2022-11-16T18:31:52.896Z,92.69
2022-11-16T18:36:56.572Z,91.35
2022-11-16T18:41:59.286Z,89.50
2022-11-16T18:47:03.421Z,89.24
2022-11-16T18:52:06.077Z,89.31
2022-11-16T18:57:09.603Z,88.20
2022-11-16T19:02:13.011Z,86.93
2022-11-16T19:07:15.802Z,86.53
2022-11-16T19:12:18.604Z,84.77
2022-11-16T19:17:24.851Z,84.89
2022-11-16T19:22:27.584Z,84.60
2022-11-16T19:27:33.160Z,84.49
2022-11-16T19:32:35.877Z,84.81
2022-11-16T19:37:41.850Z,84.88
2022-11-16T19:42:44.633Z,85.41
2022-11-16T19:47:47.331Z,85.05
2022-11-16T19:52:49.979Z,85.83
2022-11-16T19:57:52.613Z,85.69
2022-11-16T20:02:58.713Z,86.27
2022-11-16T20:08:01.449Z,86.33
2022-11-16T20:13:04.204Z,87.21
2022-11-16T20:18:06.867Z,86.40
2022-11-16T20:23:09.521Z,86.67
2022-11-16T20:28:12.229Z,87.14
2022-11-16T20:33:15.293Z,87.83
2022-11-16T20:38:17.968Z,87.67
2022-11-16T20:43:20.686Z,88.44
2022-11-16T20:48:24.247Z,88.75
2022-11-16T20:53:27.096Z,88.49
2022-11-16T20:58:30.882Z,89.47
2022-11-16T21:03:33.770Z,89.23
2022-11-16T21:08:37.847Z,89.53
2022-11-16T21:13:58.709Z,89.87
2022-11-16T21:19:01.815Z,89.44
2022-11-16T21:24:04.914Z,90.13
2022-11-16T21:29:07.575Z,89.84
2022-11-16T21:34:10.410Z,90.80
2022-11-16T21:39:13.103Z,90.58
2022-11-16T21:44:15.767Z,90.31
2022-11-16T21:49:18.609Z,90.11
2022-11-16T21:54:21.475Z,90.27
2022-11-16T21:59:24.187Z,89.47
2022-11-16T22:04:45.256Z,89.82
2022-11-16T22:09:47.972Z,88.58
2022-11-16T22:14:50.763Z,87.58
2022-11-16T22:19:53.668Z,86.79
2022-11-16T22:24:56.625Z,86.45
2022-11-16T22:29:59.355Z,86.44
2022-11-16T22:35:02.028Z,87.15
2022-11-16T22:40:06.689Z,86.63
2022-11-16T22:45:09.728Z,86.77
2022-11-16T22:50:12.776Z,86.65
2022-11-16T22:55:15.641Z,86.05
2022-11-16T23:00:18.697Z,86.73
2022-11-16T23:05:21.387Z,87.07
2022-11-16T23:10:24.008Z,86.82
2022-11-16T23:15:50.301Z,86.95
2022-11-16T23:21:11.577Z,86.87
2022-11-16T23:26:44.036Z,86.88
2022-11-16T23:31:46.696Z,86.96
2022-11-16T23:36:49.413Z,87.25
2022-11-16T23:42:10.649Z,86.67
2022-11-16T23:47:13.344Z,87.68
2022-11-16T23:52:16.146Z,87.39
2022-11-16T23:57:18.879Z,87.70
